Chain of Rocks, Missouri
Current Conditions -  °F | °C
As of 3:54 AM on Tuesday 27 Jan 2015 (Local Time) from KSET Reporting Station
Clear Clear  
Wind Chill: 30°   Ceiling: Unl
Heat Index: 36°   Visibility: 10mi
Dew Point: 33°   Wind: 7mph
Humidity: 89%   Direction: 310°NW
Pressure: 29.98"   Gusts: NA
Location:  38.9362°N, 90.7728°W
Report Text: KSET 270954Z AUTO 31006KT 10SM CLR 02/01 A2998 RMK AO2 SLP152 T00220006
Loading
Personal Weather Stations






























Interactive Weather Map New forecast layout! Learn more

10-Day Weather Forecast

Advertisements
Track Severe Weather on mobile